Time;durP1;ratioP1;P1;durP2;ratioP2;P2;SDS_P1;SDS_P2;PMS_P1;PMS_P2;Temp;Humidity;BMP_temperature;BMP_pressure;BME280_temperature;BME280_humidity;BME280_pressure;Samples;Min_cycle;Max_cycle;Signal;HPM_P1;HPM_P2
2022/07/15 00:02:07;;;;;;;;;7.00;4.25;;;;;22.78;38.53;101893.97;6187496;22;45431;-91
2022/07/15 00:04:33;;;;;;;;;5.25;4.00;;;;;22.79;38.53;101903.66;6187151;22;45232;-91
2022/07/15 00:06:59;;;;;;;;;5.75;3.75;;;;;22.71;38.15;101887.31;6186711;22;45346;-91
2022/07/15 00:10:13;;;;;;;;;4.00;3.75;;;;;22.67;39.09;101893.78;6161562;22;45298;-91
2022/07/15 00:12:10;;;;;;;;;4.25;4.25;;;;;22.58;39.49;101895.19;6191541;22;45609;-91
2022/07/15 00:14:36;;;;;;;;;4.50;4.25;;;;;22.56;39.09;101897.09;6161621;22;47253;-91
2022/07/15 00:17:01;;;;;;;;;4.50;3.00;;;;;22.52;38.53;101899.06;6162120;22;45399;-92
2022/07/15 00:19:27;;;;;;;;;5.50;3.25;;;;;22.46;39.56;101899.44;6213597;22;45287;-92
2022/07/15 00:21:52;;;;;;;;;4.00;4.00;;;;;22.36;39.52;101892.97;6213506;22;45275;-92
2022/07/15 00:24:17;;;;;;;;;4.50;3.25;;;;;22.36;39.57;101904.47;6185746;22;62783;-91
2022/07/15 00:26:43;;;;;;;;;4.00;4.00;;;;;22.35;39.96;101905.41;6186575;22;53651;-92
2022/07/15 00:29:08;;;;;;;;;5.25;4.25;;;;;22.32;38.95;101918.00;6162039;22;45332;-89
2022/07/15 00:31:33;;;;;;;;;3.25;2.50;;;;;22.29;39.66;101913.75;6161384;22;53177;-92
2022/07/15 00:34:00;;;;;;;;;3.50;3.50;;;;;22.25;39.99;101917.50;6161649;22;47232;-92
2022/07/15 00:36:25;;;;;;;;;3.50;3.50;;;;;22.23;39.90;101922.00;6186689;22;45647;-92
2022/07/15 00:38:50;;;;;;;;;4.25;3.25;;;;;22.20;39.67;101919.56;6161643;22;45110;-91
2022/07/15 00:41:16;;;;;;;;;5.00;3.75;;;;;22.14;39.96;101912.81;6161328;22;55492;-92
2022/07/15 00:43:41;;;;;;;;;3.25;3.25;;;;;22.10;39.78;101911.31;6161313;22;56558;-92
2022/07/15 00:46:06;;;;;;;;;6.00;3.50;;;;;22.11;39.85;101928.91;6160857;22;64260;-92
2022/07/15 00:48:32;;;;;;;;;3.25;2.50;;;;;22.03;40.59;101928.50;6161182;22;63918;-92
2022/07/15 00:50:57;;;;;;;;;6.00;2.00;;;;;22.02;40.30;101932.94;6161991;22;45494;-91
2022/07/15 00:53:26;;;;;;;;;6.00;3.50;;;;;21.98;40.25;101944.66;6186351;22;51537;-93
2022/07/15 00:55:54;;;;;;;;;3.00;3.00;;;;;21.94;40.74;101947.59;6161851;22;45718;-92
2022/07/15 00:58:23;;;;;;;;;4.75;4.00;;;;;21.90;40.51;101940.75;6161834;22;45307;-93
2022/07/15 01:00:50;;;;;;;;;3.75;3.75;;;;;21.81;40.21;101940.34;6186980;22;45415;-92
2022/07/15 01:03:19;;;;;;;;;5.50;4.00;;;;;21.79;40.79;101950.19;6161782;22;48317;-91
2022/07/15 01:05:46;;;;;;;;;4.50;4.00;;;;;21.77;40.18;101951.22;6186594;22;45689;-92
2022/07/15 01:08:12;;;;;;;;;3.00;3.00;;;;;21.68;40.52;101947.28;6186398;22;45224;-90
2022/07/15 01:10:39;;;;;;;;;2.25;2.25;;;;;21.63;41.21;101950.19;6186885;22;45302;-91
2022/07/15 01:13:04;;;;;;;;;3.00;3.00;;;;;21.61;41.57;101952.06;6161441;22;47056;-90
2022/07/15 01:15:32;;;;;;;;;4.25;3.50;;;;;21.60;41.59;101960.09;6186524;22;45312;-91
2022/07/15 01:17:58;;;;;;;;;4.00;3.00;;;;;21.54;40.66;101957.81;6186959;22;45315;-90
2022/07/15 01:20:24;;;;;;;;;2.75;1.25;;;;;21.53;41.30;101970.19;6161762;22;45257;-91
2022/07/15 01:22:49;;;;;;;;;3.00;3.00;;;;;21.50;41.22;101970.34;6161039;22;48437;-91
2022/07/15 01:25:14;;;;;;;;;3.00;2.25;;;;;21.45;40.86;101962.69;6161416;22;46212;-91
2022/07/15 01:27:41;;;;;;;;;3.75;2.50;;;;;21.41;41.04;101965.53;6161072;22;56529;-91
2022/07/15 01:30:07;;;;;;;;;2.00;2.00;;;;;21.40;40.69;101967.34;6161892;22;45357;-90
2022/07/15 01:32:32;;;;;;;;;3.00;3.00;;;;;21.33;41.02;101965.13;6186356;22;45428;-92
2022/07/15 01:34:58;;;;;;;;;3.75;2.00;;;;;21.27;41.66;101972.44;6161782;22;45180;-92
2022/07/15 01:37:23;;;;;;;;;2.25;2.25;;;;;21.22;41.13;101969.19;6160468;22;61724;-91
2022/07/15 01:39:48;;;;;;;;;5.25;2.00;;;;;21.19;40.81;101965.84;6161285;22;50688;-92
2022/07/15 01:42:14;;;;;;;;;3.00;3.00;;;;;21.10;41.36;101961.94;6161204;22;47136;-91
2022/07/15 01:44:39;;;;;;;;;3.50;3.00;;;;;21.05;41.29;101962.16;6160740;22;52539;-92
2022/07/15 01:47:04;;;;;;;;;6.00;2.75;;;;;21.06;41.55;101969.19;6213212;22;45240;-91
2022/07/15 01:49:31;;;;;;;;;5.25;2.00;;;;;21.01;41.18;101963.28;6186472;22;45263;-90
2022/07/15 01:51:58;;;;;;;;;3.25;3.25;;;;;20.98;41.52;101967.88;6212426;22;46652;-91
2022/07/15 01:54:25;;;;;;;;;2.25;2.00;;;;;20.99;41.78;101959.84;6213096;22;45311;-91
2022/07/15 01:56:51;;;;;;;;;2.25;1.00;;;;;20.98;41.37;101962.59;6161378;22;45293;-91
2022/07/15 01:59:17;;;;;;;;;3.00;3.00;;;;;20.92;41.50;101952.34;6213192;22;45196;-91
2022/07/15 02:01:43;;;;;;;;;4.00;2.50;;;;;20.92;40.79;101961.13;6186457;22;46004;-91
2022/07/15 02:04:09;;;;;;;;;3.00;3.00;;;;;20.89;41.18;101961.28;6186742;22;45312;-91
2022/07/15 02:06:34;;;;;;;;;3.25;1.00;;;;;20.84;41.04;101963.34;6187721;22;45366;-91
2022/07/15 02:09:00;;;;;;;;;2.00;2.00;;;;;20.81;41.61;101952.91;6188257;22;45315;-91
2022/07/15 02:11:25;;;;;;;;;4.00;2.75;;;;;20.79;41.70;101962.72;6186121;22;45659;-91
2022/07/15 02:13:53;;;;;;;;;3.00;3.00;;;;;20.77;41.94;101959.28;6160770;22;45487;-91
2022/07/15 02:16:19;;;;;;;;;3.00;3.00;;;;;20.74;41.63;101957.66;6186733;22;45230;-91
2022/07/15 02:18:44;;;;;;;;;1.75;1.75;;;;;20.70;41.61;101953.47;6186058;22;45570;-91
2022/07/15 02:21:10;;;;;;;;;3.00;2.25;;;;;20.66;41.70;101955.41;6159706;22;65938;-91
2022/07/15 02:23:35;;;;;;;;;2.00;2.00;;;;;20.65;41.83;101952.84;6160940;22;45195;-91
2022/07/15 02:26:00;;;;;;;;;2.00;2.00;;;;;20.63;42.35;101955.56;6160796;22;57373;-92
2022/07/15 02:28:26;;;;;;;;;3.00;1.00;;;;;20.60;42.40;101957.50;6161511;22;45212;-92
2022/07/15 02:30:51;;;;;;;;;2.75;2.75;;;;;20.62;41.94;101959.16;6161202;22;47857;-91
2022/07/15 02:33:17;;;;;;;;;2.00;2.00;;;;;20.62;42.02;101960.94;6186560;22;45260;-92
2022/07/15 02:35:42;;;;;;;;;4.50;3.00;;;;;20.60;42.17;101966.31;6160876;22;45208;-92
2022/07/15 02:38:08;;;;;;;;;4.50;3.00;;;;;20.56;41.80;101961.22;6160596;22;61186;-91
2022/07/15 02:40:33;;;;;;;;;2.25;2.25;;;;;20.47;42.18;101957.28;6160856;22;60802;-92
2022/07/15 02:43:01;;;;;;;;;4.00;3.00;;;;;20.48;42.53;101956.31;6185906;22;46205;-91
2022/07/15 02:45:27;;;;;;;;;4.25;2.00;;;;;20.42;41.91;101957.50;6161006;22;45298;-91
2022/07/15 02:47:53;;;;;;;;;3.00;2.25;;;;;20.34;41.75;101945.59;6160436;22;45396;-91
2022/07/15 02:50:20;;;;;;;;;4.00;3.00;;;;;20.29;42.42;101956.41;6160327;22;46933;-92
2022/07/15 02:52:46;;;;;;;;;5.00;3.25;;;;;20.19;43.30;101955.16;6212520;22;45189;-92
2022/07/15 02:55:12;;;;;;;;;4.00;4.00;;;;;20.11;42.60;101953.78;6185987;22;45299;-91
2022/07/15 02:57:38;;;;;;;;;5.75;4.00;;;;;20.14;42.90;101973.06;6161107;22;45227;-91
2022/07/15 03:00:05;;;;;;;;;14.00;4.00;;;;;20.11;42.79;101971.41;6160700;22;47018;-91
2022/07/15 03:02:31;;;;;;;;;7.75;6.00;;;;;20.08;43.49;101975.06;6160641;22;45929;-92
2022/07/15 03:04:56;;;;;;;;;8.50;5.00;;;;;20.02;43.56;101966.56;6160368;22;45841;-92
2022/07/15 03:07:22;;;;;;;;;5.75;3.75;;;;;20.09;43.11;101982.03;6160783;22;45342;-92
2022/07/15 03:09:47;;;;;;;;;4.00;4.00;;;;;20.08;42.63;101976.84;6161665;22;47199;-90
2022/07/15 03:12:12;;;;;;;;;4.75;3.75;;;;;20.02;43.35;101975.38;6187224;22;45431;-91
2022/07/15 03:14:38;;;;;;;;;6.75;4.00;;;;;19.99;43.14;101977.31;6160808;22;57827;-91
2022/07/15 03:17:03;;;;;;;;;3.00;3.00;;;;;19.95;43.32;101975.72;6187491;22;49532;-92
2022/07/15 03:19:29;;;;;;;;;4.00;3.00;;;;;19.96;43.68;101982.72;6213284;22;46209;-91
2022/07/15 03:21:54;;;;;;;;;3.00;3.00;;;;;19.91;43.04;101975.03;6161307;22;58371;-91
2022/07/15 03:24:19;;;;;;;;;5.75;4.00;;;;;19.92;43.46;101989.94;6161128;22;65302;-91
2022/07/15 03:26:45;;;;;;;;;3.00;3.00;;;;;19.86;42.67;101988.47;6162298;22;45198;-90
2022/07/15 03:29:13;;;;;;;;;7.50;5.00;;;;;19.83;43.53;101985.97;6161921;22;47518;-92
2022/07/15 03:31:39;;;;;;;;;4.00;3.75;;;;;19.86;43.57;101995.53;6162700;22;45831;-92
2022/07/15 03:34:04;;;;;;;;;3.75;3.75;;;;;19.82;43.90;101986.91;6161843;22;45324;-91
2022/07/15 03:36:29;;;;;;;;;6.00;5.00;;;;;19.79;43.68;101986.19;6162141;22;45305;-92
2022/07/15 03:38:55;;;;;;;;;4.00;3.00;;;;;19.80;43.11;101978.19;6161249;22;65835;-91
2022/07/15 03:41:21;;;;;;;;;4.50;3.00;;;;;19.82;43.93;101976.34;6161813;22;45324;-92
2022/07/15 03:43:47;;;;;;;;;4.75;4.25;;;;;19.81;43.53;101974.59;6187261;22;45323;-91
2022/07/15 03:46:15;;;;;;;;;4.00;4.00;;;;;19.78;43.90;101969.50;6213625;22;45386;-92
2022/07/15 03:48:40;;;;;;;;;5.25;4.25;;;;;19.80;43.55;101972.91;6187287;22;47215;-91
2022/07/15 03:51:06;;;;;;;;;7.00;6.00;;;;;19.77;44.01;101962.47;6161868;22;45277;-91
2022/07/15 03:53:31;;;;;;;;;5.00;3.75;;;;;19.80;43.91;101970.28;6186880;22;45331;-91
2022/07/15 03:55:57;;;;;;;;;6.25;4.00;;;;;19.77;43.78;101966.91;6161458;22;56234;-92
2022/07/15 03:58:22;;;;;;;;;5.75;3.00;;;;;19.73;43.95;101959.13;6186874;22;46210;-91
2022/07/15 04:00:48;;;;;;;;;4.00;3.00;;;;;19.74;43.95;101967.91;6186695;22;60123;-92
2022/07/15 04:03:13;;;;;;;;;6.00;4.00;;;;;19.72;43.65;101972.38;6212475;22;59842;-91
2022/07/15 04:05:38;;;;;;;;;4.50;4.00;;;;;19.69;44.14;101972.53;6187098;22;45483;-91
2022/07/15 04:08:04;;;;;;;;;4.50;4.00;;;;;19.75;44.02;101980.19;6161932;22;46944;-91
2022/07/15 04:10:31;;;;;;;;;4.50;4.00;;;;;19.77;44.11;101990.69;6186891;22;45356;-90
2022/07/15 04:12:56;;;;;;;;;3.00;3.00;;;;;19.75;43.31;101982.84;6162340;22;45350;-92
2022/07/15 04:15:21;;;;;;;;;4.00;3.00;;;;;19.67;43.85;101984.97;6162174;22;45523;-91
2022/07/15 04:17:47;;;;;;;;;4.75;3.00;;;;;19.65;44.25;101982.41;6186720;22;45343;-91
2022/07/15 04:20:12;;;;;;;;;7.00;3.75;;;;;19.65;44.25;101992.09;6161157;22;45293;-92
2022/07/15 04:22:41;;;;;;;;;3.50;3.50;;;;;19.67;44.09;101988.47;6213089;22;51388;-91
2022/07/15 04:25:08;;;;;;;;;4.25;4.00;;;;;19.68;44.60;101997.22;6162342;22;45178;-93
2022/07/15 04:27:33;;;;;;;;;3.50;3.25;;;;;19.65;43.87;101995.59;6186794;22;47622;-91
2022/07/15 04:29:59;;;;;;;;;3.50;3.50;;;;;19.61;43.97;101990.53;6161714;22;45286;-92
2022/07/15 04:32:25;;;;;;;;;5.00;3.25;;;;;19.57;44.01;101991.59;6160970;22;60995;-91
2022/07/15 04:34:51;;;;;;;;;4.00;4.00;;;;;19.60;44.50;101996.75;6162259;22;45479;-90
2022/07/15 04:37:16;;;;;;;;;5.75;4.00;;;;;19.58;44.33;101999.47;6161989;22;46936;-91
2022/07/15 04:39:41;;;;;;;;;5.50;4.00;;;;;19.58;44.36;102002.09;6161161;22;53299;-91
2022/07/15 04:42:07;;;;;;;;;5.50;3.50;;;;;19.60;44.56;102007.31;6187170;22;45300;-92
2022/07/15 04:44:32;;;;;;;;;4.00;3.00;;;;;19.58;44.42;102010.03;6161521;22;45282;-91
2022/07/15 04:46:58;;;;;;;;;4.50;4.00;;;;;19.57;44.41;102008.28;6186602;22;46183;-91
2022/07/15 04:52:08;;;;;;;;;4.00;2.25;;;;;19.59;45.54;102013.50;6191468;22;45375;-91
2022/07/15 04:54:33;;;;;;;;;3.75;3.75;;;;;19.62;44.34;102008.09;6161706;22;45531;-90
2022/07/15 04:56:58;;;;;;;;;7.00;5.00;;;;;19.60;45.32;102007.31;6186497;22;45498;-91
2022/07/15 04:59:24;;;;;;;;;4.00;3.75;;;;;19.56;45.08;102003.97;6161244;22;46896;-91
2022/07/15 05:01:49;;;;;;;;;6.25;5.00;;;;;19.60;45.18;102009.94;6161043;22;53991;-90
2022/07/15 05:04:14;;;;;;;;;5.00;3.25;;;;;19.57;44.88;102015.38;6161753;22;45239;-92
2022/07/15 05:06:40;;;;;;;;;5.00;2.00;;;;;19.54;45.39;102011.94;6160400;22;67992;-91
2022/07/15 05:09:05;;;;;;;;;4.75;3.00;;;;;19.59;45.53;102021.44;6161117;22;52579;-91
2022/07/15 05:11:30;;;;;;;;;4.50;3.50;;;;;19.54;45.36;102017.22;6161210;22;50074;-92
2022/07/15 05:13:56;;;;;;;;;5.75;3.00;;;;;19.55;45.53;102023.34;6161035;22;46007;-91
2022/07/15 05:16:21;;;;;;;;;5.00;4.00;;;;;19.56;45.21;102032.13;6160489;22;71182;-92
2022/07/15 05:18:46;;;;;;;;;3.75;3.25;;;;;19.50;44.69;102025.34;6213000;22;45215;-92
2022/07/15 05:21:12;;;;;;;;;3.75;3.00;;;;;19.47;45.81;102020.22;6161736;22;45261;-91
2022/07/15 05:23:37;;;;;;;;;5.00;4.00;;;;;19.44;45.67;102018.56;6186664;22;45518;-91
2022/07/15 05:26:03;;;;;;;;;5.50;3.00;;;;;19.47;45.70;102025.50;6161192;22;47401;-92
2022/07/15 05:28:28;;;;;;;;;3.25;3.00;;;;;19.48;45.09;102033.38;6212401;22;45257;-91
2022/07/15 05:30:53;;;;;;;;;4.25;3.25;;;;;19.44;45.90;102034.41;6160332;22;62309;-91
2022/07/15 05:33:19;;;;;;;;;5.25;4.25;;;;;19.42;46.73;102027.50;6161449;22;45285;-91
2022/07/15 05:35:44;;;;;;;;;4.75;4.00;;;;;19.52;45.53;102047.28;6186411;22;52853;-90
2022/07/15 05:38:11;;;;;;;;;6.00;3.50;;;;;19.51;46.90;102051.69;6186695;22;45328;-91
2022/07/15 05:40:36;;;;;;;;;6.25;4.00;;;;;19.46;46.05;102045.75;6161723;22;45257;-91
2022/07/15 05:43:02;;;;;;;;;4.75;4.25;;;;;19.48;45.87;102057.13;6186460;22;45447;-90
2022/07/15 05:45:27;;;;;;;;;5.00;4.00;;;;;19.44;45.72;102052.03;6161342;22;47030;-90
2022/07/15 05:47:53;;;;;;;;;4.50;3.25;;;;;19.44;46.67;102062.59;6161148;22;45324;-90
2022/07/15 05:50:18;;;;;;;;;4.50;3.00;;;;;19.45;46.38;102059.06;6160700;22;63055;-89
2022/07/15 05:52:45;;;;;;;;;4.00;4.00;;;;;19.45;46.43;102053.78;6186169;22;45264;-90
2022/07/15 05:55:11;;;;;;;;;4.50;3.50;;;;;19.41;46.46;102058.34;6160947;22;47037;-90
2022/07/15 05:57:36;;;;;;;;;3.00;3.00;;;;;19.39;46.25;102059.31;6185836;22;45182;-90
2022/07/15 06:00:03;;;;;;;;;4.50;4.50;;;;;19.33;46.24;102052.53;6186691;22;46606;-89
2022/07/15 06:02:30;;;;;;;;;6.00;3.75;;;;;19.30;47.01;102056.16;6212974;22;45226;-90
2022/07/15 06:04:55;;;;;;;;;6.75;5.25;;;;;19.30;47.21;102056.16;6186832;22;45577;-91
2022/07/15 06:07:21;;;;;;;;;7.25;4.25;;;;;19.28;47.33;102044.81;6160308;22;62096;-91
2022/07/15 06:09:50;;;;;;;;;5.00;4.00;;;;;19.34;47.31;102047.19;6186391;22;45327;-91
2022/07/15 06:12:15;;;;;;;;;5.00;3.00;;;;;19.40;46.26;102050.47;6186674;22;45297;-89
2022/07/15 06:14:41;;;;;;;;;6.00;4.00;;;;;19.38;46.98;102053.19;6160510;22;48311;-90
2022/07/15 06:17:06;;;;;;;;;5.50;4.00;;;;;19.34;46.86;102044.53;6160867;22;45248;-89
2022/07/15 06:19:32;;;;;;;;;6.50;4.00;;;;;19.37;47.30;102050.59;6160584;22;45276;-89
2022/07/15 06:21:57;;;;;;;;;7.00;4.00;;;;;19.41;47.06;102053.06;6161040;22;45218;-89
2022/07/15 06:24:23;;;;;;;;;6.50;4.50;;;;;19.40;47.56;102053.97;6160500;22;47435;-90
2022/07/15 06:26:48;;;;;;;;;6.00;4.00;;;;;19.42;46.97;102053.91;6185056;22;53676;-89
2022/07/15 06:29:13;;;;;;;;;6.00;4.00;;;;;19.47;48.15;102057.19;6160881;22;45282;-90
2022/07/15 06:31:39;;;;;;;;;4.25;4.00;;;;;19.45;47.13;102051.97;6212290;22;45280;-89
2022/07/15 06:34:05;;;;;;;;;3.50;3.50;;;;;19.50;46.81;102054.41;6185817;22;45458;-90
2022/07/15 06:36:30;;;;;;;;;4.50;3.50;;;;;19.53;46.42;102046.34;6212566;22;45333;-90
2022/07/15 06:38:56;;;;;;;;;4.75;4.25;;;;;19.53;46.64;102055.09;6159554;22;66043;-90
2022/07/15 06:41:21;;;;;;;;;4.75;3.50;;;;;19.60;46.52;102053.06;6160127;22;45286;-90
2022/07/15 06:43:46;;;;;;;;;4.50;4.50;;;;;19.62;46.27;102055.63;6160975;22;47378;-90
2022/07/15 06:46:12;;;;;;;;;3.75;3.75;;;;;19.63;46.14;102062.63;6212156;22;69750;-89
2022/07/15 06:48:39;;;;;;;;;7.25;4.00;;;;;19.65;46.05;102064.28;6161656;22;45308;-90
2022/07/15 06:51:04;;;;;;;;;6.00;4.00;;;;;19.66;46.50;102057.19;6187432;22;45304;-90
2022/07/15 06:53:30;;;;;;;;;6.00;3.75;;;;;19.70;46.74;102064.06;6186863;22;46931;-90
2022/07/15 06:55:55;;;;;;;;;3.50;3.50;;;;;19.75;46.21;102069.16;6186493;22;45162;-89
2022/07/15 06:58:20;;;;;;;;;6.00;5.00;;;;;19.72;46.52;102059.53;6161923;22;45431;-89
2022/07/15 07:00:46;;;;;;;;;8.00;4.00;;;;;19.83;47.08;102064.38;6161261;22;56788;-90
2022/07/15 07:03:11;;;;;;;;;6.75;4.00;;;;;19.89;46.70;102062.31;6186854;22;47263;-90
2022/07/15 07:05:36;;;;;;;;;6.25;3.25;;;;;19.98;46.37;102068.06;6161243;22;61750;-90
2022/07/15 07:08:02;;;;;;;;;4.00;4.00;;;;;20.02;45.73;102064.34;6186844;22;45310;-90
2022/07/15 07:10:27;;;;;;;;;1.00;1.00;;;;;20.13;46.00;102064.69;6161985;22;45431;-90
2022/07/15 07:12:53;;;;;;;;;4.25;4.25;;;;;20.20;46.22;102060.81;6161954;22;47226;-91
2022/07/15 07:15:20;;;;;;;;;3.00;3.00;;;;;20.30;45.09;102067.38;6162017;22;45250;-91
2022/07/15 07:17:46;;;;;;;;;7.00;3.00;;;;;20.28;45.18;102058.69;6162743;22;45373;-90
2022/07/15 07:20:12;;;;;;;;;6.75;4.00;;;;;20.35;45.30;102066.31;6187233;22;45455;-90
2022/07/15 07:22:37;;;;;;;;;7.00;3.75;;;;;20.45;44.82;102067.56;6186782;22;47135;-90
2022/07/15 07:25:03;;;;;;;;;4.00;4.00;;;;;20.55;45.01;102075.91;6213272;22;45325;-90
2022/07/15 07:27:28;;;;;;;;;7.50;4.75;;;;;20.55;43.74;102054.75;6187304;22;45339;-91
2022/07/15 07:29:54;;;;;;;;;5.50;3.50;;;;;20.62;43.73;102066.75;6160988;22;53889;-90
2022/07/15 07:32:19;;;;;;;;;1.00;1.00;;;;;20.66;43.62;102060.38;6186877;22;45316;-90
2022/07/15 07:34:44;;;;;;;;;2.75;2.75;;;;;20.71;43.32;102061.00;6187019;22;51689;-90
2022/07/15 07:37:10;;;;;;;;;3.75;3.00;;;;;20.74;42.83;102054.69;6161152;22;56769;-90
2022/07/15 07:39:36;;;;;;;;;4.00;2.50;;;;;20.86;42.46;102062.00;6161097;22;52277;-91
2022/07/15 07:42:01;;;;;;;;;4.25;4.00;;;;;20.89;42.84;102061.84;6161816;22;47337;-91
2022/07/15 07:44:26;;;;;;;;;4.00;3.00;;;;;20.96;42.49;102051.81;6186602;22;55496;-91
2022/07/15 07:46:52;;;;;;;;;4.00;3.25;;;;;21.02;42.54;102056.78;6186841;22;45282;-91
2022/07/15 07:49:17;;;;;;;;;4.00;2.25;;;;;21.10;42.16;102057.25;6186838;22;45231;-91
2022/07/15 07:51:42;;;;;;;;;3.25;2.00;;;;;21.12;41.61;102050.06;6186894;22;56389;-91
2022/07/15 07:54:09;;;;;;;;;5.25;3.75;;;;;21.22;41.91;102053.06;6213051;22;45166;-91
2022/07/15 07:56:35;;;;;;;;;3.50;3.50;;;;;21.31;41.25;102055.25;6161815;22;45291;-90
2022/07/15 07:59:00;;;;;;;;;2.00;2.00;;;;;21.38;41.45;102046.03;6187315;22;45481;-91
2022/07/15 08:01:26;;;;;;;;;4.00;4.00;;;;;21.42;41.00;102050.22;6161609;22;47358;-92
2022/07/15 08:03:51;;;;;;;;;5.50;2.25;;;;;21.46;40.85;102049.13;6161990;22;45514;-91
2022/07/15 08:06:17;;;;;;;;;3.75;3.75;;;;;21.54;41.09;102051.38;6161113;22;55395;-91
2022/07/15 08:08:43;;;;;;;;;3.50;3.00;;;;;21.61;40.69;102049.25;6161387;22;45276;-91
2022/07/15 08:11:09;;;;;;;;;3.25;3.25;;;;;21.68;40.43;102041.84;6186828;22;46505;-91
2022/07/15 08:13:35;;;;;;;;;2.75;2.00;;;;;21.73;39.98;102053.88;6213196;22;45280;-90
2022/07/15 08:16:01;;;;;;;;;4.25;2.00;;;;;21.70;39.33;102039.94;6156777;23;45290;-92
2022/07/15 08:18:27;;;;;;;;;2.50;2.00;;;;;21.74;39.16;102046.78;6156602;23;45427;-90
2022/07/15 08:20:52;;;;;;;;;2.00;2.00;;;;;21.76;39.26;102044.91;6156762;23;46222;-92
2022/07/15 08:23:20;;;;;;;;;3.25;3.00;;;;;21.79;39.30;102039.44;6155679;23;58294;-91
2022/07/15 08:25:47;;;;;;;;;4.00;2.00;;;;;21.87;39.18;102036.34;6156569;23;45304;-91
2022/07/15 08:28:13;;;;;;;;;2.25;2.00;;;;;21.90;39.13;102029.09;6156311;23;45311;-90
2022/07/15 08:30:38;;;;;;;;;2.50;2.00;;;;;22.00;38.66;102038.22;6156341;23;46505;-89
2022/07/15 08:33:03;;;;;;;;;4.00;2.00;;;;;22.08;38.49;102036.94;6156214;23;45598;-91
2022/07/15 08:35:30;;;;;;;;;3.50;2.25;;;;;22.08;38.83;102036.94;6156823;23;45648;-91
2022/07/15 08:37:55;;;;;;;;;4.00;2.00;;;;;22.14;38.63;102045.41;6156006;23;45455;-90
2022/07/15 08:40:21;;;;;;;;;4.00;2.00;;;;;22.17;37.96;102041.72;6182389;23;45991;-91
2022/07/15 08:42:47;;;;;;;;;2.00;2.00;;;;;22.21;38.33;102040.59;6156784;23;45257;-90
2022/07/15 08:45:14;;;;;;;;;2.75;2.75;;;;;22.23;37.89;102039.56;6131903;23;45285;-90
2022/07/15 08:47:41;;;;;;;;;2.25;2.25;;;;;22.25;37.03;102039.50;6155719;23;45384;-90
2022/07/15 08:50:17;;;;;;;;;4.00;1.50;;;;;22.22;37.40;102026.41;6131778;23;48252;-92
2022/07/15 08:52:43;;;;;;;;;3.50;2.00;;;;;22.26;36.90;102019.16;6182554;23;45671;-91
2022/07/15 08:55:09;;;;;;;;;4.00;2.00;;;;;22.34;36.71;102027.50;6157570;23;45335;-91
2022/07/15 08:57:34;;;;;;;;;3.00;2.00;;;;;22.36;36.92;102021.19;6157345;23;45574;-91
2022/07/15 09:00:00;;;;;;;;;1.00;1.00;;;;;22.48;36.66;102030.22;6156649;23;46246;-91
2022/07/15 09:02:26;;;;;;;;;4.00;2.00;;;;;22.46;36.95;102008.22;6156866;23;45351;-91
2022/07/15 09:05:16;;;;;;;;;2.25;1.25;;;;;22.59;36.29;102021.63;6131383;23;49910;-92
2022/07/15 09:08:18;;;;;;;;;2.00;2.00;;;;;22.65;36.51;102020.41;6182525;23;45269;-91
2022/07/15 09:10:45;;;;;;;;;4.00;1.00;;;;;22.70;35.53;102020.97;6096663;23;47226;-92
2022/07/15 09:13:38;;;;;;;;;1.00;1.00;;;;;22.76;35.33;102020.59;6096445;23;45759;-91
2022/07/15 09:16:08;;;;;;;;;1.50;1.50;;;;;22.83;35.68;102019.28;6148273;23;45210;-91
2022/07/15 09:18:38;;;;;;;;;2.00;2.00;;;;;22.88;35.23;102022.53;6150604;23;45379;-91
2022/07/15 09:21:25;;;;;;;;;3.00;2.00;;;;;22.97;34.98;102021.97;6100293;23;46946;-90
2022/07/15 09:23:53;;;;;;;;;3.00;1.00;;;;;23.03;34.81;102027.84;6150433;23;45741;-91
2022/07/15 09:26:27;;;;;;;;;0.50;0.50;;;;;23.08;34.86;102033.75;6125702;23;45411;-90
2022/07/15 09:28:53;;;;;;;;;1.00;1.00;;;;;23.12;34.41;102036.16;6150364;23;45529;-90
2022/07/15 09:34:20;;;;;;;;;2.50;1.50;;;;;23.24;34.82;102023.91;6150452;23;45299;-91
2022/07/15 09:36:52;;;;;;;;;3.50;1.00;;;;;23.31;34.50;102022.56;6125097;23;45384;-90
2022/07/15 09:39:19;;;;;;;;;1.00;1.00;;;;;23.37;34.03;102011.53;6150887;23;45329;-91
2022/07/15 09:41:46;;;;;;;;;2.25;0.75;;;;;23.44;33.76;102005.84;6150071;23;47285;-91
2022/07/15 09:44:23;;;;;;;;;2.75;2.00;;;;;23.50;33.91;102013.44;6139246;22;45333;-91
2022/07/15 09:46:49;;;;;;;;;2.75;0.75;;;;;23.56;33.41;102005.91;6213038;22;45351;-91
2022/07/15 09:49:20;;;;;;;;;0.50;0.50;;;;;23.63;33.87;102014.34;6212648;22;45434;-91
2022/07/15 09:51:54;;;;;;;;;0.75;0.75;;;;;23.72;33.54;102020.91;6161658;22;47078;-91
2022/07/15 09:54:23;;;;;;;;;2.75;1.50;;;;;23.75;32.97;102000.28;6186398;22;46059;-91
2022/07/15 09:56:49;;;;;;;;;1.00;1.00;;;;;23.83;32.91;102023.75;6186629;22;45344;-91
2022/07/15 09:59:15;;;;;;;;;1.75;1.75;;;;;23.86;32.18;102006.72;6161326;22;45444;-90
2022/07/15 10:01:41;;;;;;;;;0.75;0.75;;;;;23.94;32.28;102005.28;6161182;22;47103;-92
2022/07/15 10:04:08;;;;;;;;;1.75;1.00;;;;;24.00;32.36;101995.19;6186028;22;45635;-92
2022/07/15 10:06:36;;;;;;;;;0.75;0.75;;;;;24.02;32.64;101996.78;6161393;22;45228;-90
2022/07/15 10:09:03;;;;;;;;;1.00;0.50;;;;;24.07;31.10;102005.34;6186468;22;45373;-92
2022/07/15 10:11:29;;;;;;;;;0.75;0.50;;;;;24.10;30.93;102006.91;6212892;22;46384;-92
2022/07/15 10:14:25;;;;;;;;;1.50;0.75;;;;;24.17;31.22;102015.34;6186152;22;45261;-92
2022/07/15 10:17:02;;;;;;;;;0.75;0.75;;;;;24.19;31.31;102003.66;6185924;22;45294;-91
2022/07/15 10:19:55;;;;;;;;;0.75;0.75;;;;;24.24;30.75;101998.03;6212733;22;45193;-91
2022/07/15 10:22:42;;;;;;;;;1.75;1.00;;;;;24.33;30.66;102002.72;6212604;22;47189;-91
2022/07/15 10:25:36;;;;;;;;;0.00;0.00;;;;;24.38;30.56;101994.44;6186518;22;45779;-92
2022/07/15 10:28:13;;;;;;;;;0.75;0.75;;;;;24.47;30.45;101994.66;6187145;22;45332;-92
2022/07/15 10:30:40;;;;;;;;;0.25;0.25;;;;;24.58;30.29;101987.78;6186860;22;45569;-91
2022/07/15 10:33:10;;;;;;;;;2.00;1.00;;;;;24.64;30.05;101990.88;6185784;22;46002;-91
2022/07/15 10:35:44;;;;;;;;;2.00;1.75;;;;;24.68;29.84;101984.41;6212728;22;45165;-92
2022/07/15 10:38:29;;;;;;;;;1.25;0.75;;;;;24.73;29.55;101981.41;6186364;22;45328;-92
2022/07/15 10:41:00;;;;;;;;;2.00;1.00;;;;;24.78;29.37;101976.63;6186300;22;45502;-91
2022/07/15 10:43:45;;;;;;;;;1.50;1.00;;;;;24.80;29.20;101980.03;6185986;22;46997;-92
2022/07/15 10:46:16;;;;;;;;;1.00;1.00;;;;;24.81;28.88;101980.88;6186057;22;45292;-91
2022/07/15 10:48:46;;;;;;;;;0.75;0.75;;;;;24.86;29.31;101979.59;6212242;22;45212;-92
2022/07/15 10:51:13;;;;;;;;;2.00;1.00;;;;;24.95;28.94;101974.59;6186687;22;45501;-92
2022/07/15 10:53:46;;;;;;;;;2.00;1.00;;;;;25.04;28.96;101969.47;6160568;22;47292;-90
2022/07/15 10:56:27;;;;;;;;;1.00;1.00;;;;;25.12;28.99;101968.91;6185655;22;45786;-92
2022/07/15 10:59:26;;;;;;;;;1.00;1.00;;;;;25.23;28.52;101962.81;6186109;22;45240;-92
2022/07/15 11:02:00;;;;;;;;;1.00;0.50;;;;;25.35;28.29;101961.94;6189847;22;45366;-92
2022/07/15 11:04:28;;;;;;;;;3.50;1.00;;;;;25.48;28.49;101968.13;6185531;22;47129;-92
2022/07/15 11:07:02;;;;;;;;;1.00;1.00;;;;;25.64;28.60;101966.97;6212055;22;45288;-91
2022/07/15 11:10:02;;;;;;;;;1.00;1.00;;;;;25.78;27.95;101957.94;6212557;22;45327;-91
2022/07/15 11:12:30;;;;;;;;;1.00;1.00;;;;;25.93;28.21;101953.31;6185529;22;45301;-89
2022/07/15 11:14:58;;;;;;;;;3.50;1.00;;;;;26.05;27.54;101958.59;6185551;22;48267;-94
2022/07/15 11:17:27;;;;;;;;;1.00;1.00;;;;;26.20;27.67;101955.72;6185379;22;45793;-96
2022/07/15 11:20:08;;;;;;;;;1.00;1.00;;;;;26.32;27.18;101946.78;6185840;22;45290;-92
2022/07/15 11:22:38;;;;;;;;;3.50;0.75;;;;;26.51;27.14;101954.22;6212341;22;45471;-92
2022/07/15 11:25:04;;;;;;;;;1.00;1.00;;;;;26.69;26.98;101957.31;6186356;22;47212;-92
2022/07/15 11:27:30;;;;;;;;;2.50;1.00;;;;;26.94;27.41;101948.19;6193218;22;45715;-91
2022/07/15 11:30:03;;;;;;;;;2.75;0.00;;;;;27.30;26.75;101940.06;6224177;22;44831;-92
2022/07/15 11:32:31;;;;;;;;;1.00;1.00;;;;;27.74;26.53;101943.56;6219727;22;45164;-90